sensor_id;sensor_type;location;lat;lon;timestamp;P1;durP1;ratioP1;P2;durP2;ratioP2
51010;SDS011;37038;50.182;8.624;2023-04-03T00:01:14;4.40;;;2.95;;
51010;SDS011;37038;50.182;8.624;2023-04-03T00:04:03;4.18;;;2.53;;
51010;SDS011;37038;50.182;8.624;2023-04-03T00:06:51;4.53;;;2.42;;
51010;SDS011;37038;50.182;8.624;2023-04-03T00:09:39;3.90;;;3.05;;
51010;SDS011;37038;50.182;8.624;2023-04-03T00:12:27;4.18;;;2.38;;
51010;SDS011;37038;50.182;8.624;2023-04-03T00:15:14;3.83;;;2.78;;
51010;SDS011;37038;50.182;8.624;2023-04-03T00:18:02;5.80;;;2.65;;
51010;SDS011;37038;50.182;8.624;2023-04-03T00:20:50;4.43;;;2.70;;
51010;SDS011;37038;50.182;8.624;2023-04-03T00:23:38;3.88;;;2.40;;
51010;SDS011;37038;50.182;8.624;2023-04-03T00:26:26;4.68;;;2.92;;
51010;SDS011;37038;50.182;8.624;2023-04-03T00:29:13;3.50;;;2.45;;
51010;SDS011;37038;50.182;8.624;2023-04-03T00:32:01;3.38;;;2.35;;
51010;SDS011;37038;50.182;8.624;2023-04-03T00:34:49;5.15;;;2.63;;
51010;SDS011;37038;50.182;8.624;2023-04-03T00:37:37;5.28;;;3.08;;
51010;SDS011;37038;50.182;8.624;2023-04-03T00:40:25;2.78;;;2.33;;
51010;SDS011;37038;50.182;8.624;2023-04-03T00:43:24;2.88;;;2.20;;
51010;SDS011;37038;50.182;8.624;2023-04-03T00:46:13;4.45;;;2.30;;
51010;SDS011;37038;50.182;8.624;2023-04-03T00:49:01;5.40;;;2.88;;
51010;SDS011;37038;50.182;8.624;2023-04-03T00:51:48;5.82;;;2.53;;
51010;SDS011;37038;50.182;8.624;2023-04-03T00:54:36;4.85;;;2.85;;
51010;SDS011;37038;50.182;8.624;2023-04-03T00:57:26;3.92;;;3.10;;
51010;SDS011;37038;50.182;8.624;2023-04-03T01:00:15;5.20;;;2.60;;
51010;SDS011;37038;50.182;8.624;2023-04-03T01:03:06;3.10;;;2.50;;
51010;SDS011;37038;50.182;8.624;2023-04-03T01:05:53;6.90;;;3.13;;
51010;SDS011;37038;50.182;8.624;2023-04-03T01:08:41;4.38;;;3.20;;
51010;SDS011;37038;50.182;8.624;2023-04-03T01:11:29;4.63;;;2.75;;
51010;SDS011;37038;50.182;8.624;2023-04-03T01:14:18;2.88;;;2.67;;
51010;SDS011;37038;50.182;8.624;2023-04-03T01:17:23;4.82;;;2.58;;
51010;SDS011;37038;50.182;8.624;2023-04-03T01:23:30;5.35;;;2.92;;
51010;SDS011;37038;50.182;8.624;2023-04-03T01:26:19;3.92;;;3.13;;
51010;SDS011;37038;50.182;8.624;2023-04-03T01:29:08;5.43;;;2.90;;
51010;SDS011;37038;50.182;8.624;2023-04-03T01:31:57;7.40;;;3.35;;
51010;SDS011;37038;50.182;8.624;2023-04-03T01:34:46;4.15;;;2.80;;
51010;SDS011;37038;50.182;8.624;2023-04-03T01:37:34;6.50;;;2.72;;
51010;SDS011;37038;50.182;8.624;2023-04-03T01:40:22;5.00;;;2.88;;
51010;SDS011;37038;50.182;8.624;2023-04-03T01:43:09;7.32;;;2.80;;
51010;SDS011;37038;50.182;8.624;2023-04-03T01:45:57;6.63;;;3.10;;
51010;SDS011;37038;50.182;8.624;2023-04-03T01:48:45;3.75;;;2.55;;
51010;SDS011;37038;50.182;8.624;2023-04-03T01:51:33;3.72;;;2.95;;
51010;SDS011;37038;50.182;8.624;2023-04-03T01:54:20;6.30;;;3.30;;
51010;SDS011;37038;50.182;8.624;2023-04-03T01:57:08;7.78;;;3.30;;
51010;SDS011;37038;50.182;8.624;2023-04-03T01:59:56;3.30;;;2.60;;
51010;SDS011;37038;50.182;8.624;2023-04-03T02:02:43;9.40;;;3.17;;
51010;SDS011;37038;50.182;8.624;2023-04-03T02:05:31;3.58;;;2.70;;
51010;SDS011;37038;50.182;8.624;2023-04-03T02:08:18;3.35;;;2.75;;
51010;SDS011;37038;50.182;8.624;2023-04-03T02:11:09;7.18;;;3.47;;
51010;SDS011;37038;50.182;8.624;2023-04-03T02:13:57;6.00;;;2.88;;
51010;SDS011;37038;50.182;8.624;2023-04-03T02:16:44;6.10;;;2.97;;
51010;SDS011;37038;50.182;8.624;2023-04-03T02:19:32;5.95;;;3.17;;
51010;SDS011;37038;50.182;8.624;2023-04-03T02:22:20;6.60;;;2.95;;
51010;SDS011;37038;50.182;8.624;2023-04-03T02:25:10;5.78;;;3.05;;
51010;SDS011;37038;50.182;8.624;2023-04-03T02:27:59;6.35;;;3.17;;
51010;SDS011;37038;50.182;8.624;2023-04-03T02:30:47;5.47;;;3.22;;
51010;SDS011;37038;50.182;8.624;2023-04-03T02:33:34;5.72;;;2.90;;
51010;SDS011;37038;50.182;8.624;2023-04-03T02:36:25;6.13;;;3.08;;
51010;SDS011;37038;50.182;8.624;2023-04-03T02:39:13;5.25;;;3.38;;
51010;SDS011;37038;50.182;8.624;2023-04-03T02:42:01;7.88;;;3.55;;
51010;SDS011;37038;50.182;8.624;2023-04-03T02:44:51;7.65;;;3.65;;
51010;SDS011;37038;50.182;8.624;2023-04-03T02:47:39;6.35;;;3.30;;
51010;SDS011;37038;50.182;8.624;2023-04-03T02:50:26;7.13;;;3.25;;
51010;SDS011;37038;50.182;8.624;2023-04-03T02:53:14;6.72;;;2.88;;
51010;SDS011;37038;50.182;8.624;2023-04-03T02:56:02;6.72;;;3.00;;
51010;SDS011;37038;50.182;8.624;2023-04-03T02:58:49;2.80;;;2.58;;
51010;SDS011;37038;50.182;8.624;2023-04-03T03:01:37;5.00;;;2.70;;
51010;SDS011;37038;50.182;8.624;2023-04-03T03:04:26;2.95;;;2.47;;
51010;SDS011;37038;50.182;8.624;2023-04-03T03:07:14;7.07;;;2.65;;
51010;SDS011;37038;50.182;8.624;2023-04-03T03:10:01;6.93;;;3.17;;
51010;SDS011;37038;50.182;8.624;2023-04-03T03:12:49;9.00;;;2.63;;
51010;SDS011;37038;50.182;8.624;2023-04-03T03:15:37;5.40;;;2.28;;
51010;SDS011;37038;50.182;8.624;2023-04-03T03:18:25;4.93;;;2.28;;
51010;SDS011;37038;50.182;8.624;2023-04-03T03:21:12;8.63;;;3.30;;
51010;SDS011;37038;50.182;8.624;2023-04-03T03:24:00;6.32;;;3.05;;
51010;SDS011;37038;50.182;8.624;2023-04-03T03:26:48;7.40;;;3.15;;
51010;SDS011;37038;50.182;8.624;2023-04-03T03:29:36;3.80;;;3.10;;
51010;SDS011;37038;50.182;8.624;2023-04-03T03:32:24;4.85;;;2.40;;
51010;SDS011;37038;50.182;8.624;2023-04-03T03:35:15;6.80;;;2.35;;
51010;SDS011;37038;50.182;8.624;2023-04-03T03:38:03;7.35;;;3.22;;
51010;SDS011;37038;50.182;8.624;2023-04-03T03:40:51;4.05;;;2.88;;
51010;SDS011;37038;50.182;8.624;2023-04-03T03:43:39;7.55;;;2.85;;
51010;SDS011;37038;50.182;8.624;2023-04-03T03:46:27;7.90;;;2.55;;
51010;SDS011;37038;50.182;8.624;2023-04-03T03:49:14;6.00;;;2.88;;
51010;SDS011;37038;50.182;8.624;2023-04-03T03:52:02;7.70;;;2.80;;
51010;SDS011;37038;50.182;8.624;2023-04-03T03:54:50;7.47;;;3.10;;
51010;SDS011;37038;50.182;8.624;2023-04-03T03:57:41;7.15;;;3.25;;
51010;SDS011;37038;50.182;8.624;2023-04-03T04:00:28;7.53;;;3.15;;
51010;SDS011;37038;50.182;8.624;2023-04-03T04:03:16;8.93;;;3.25;;
51010;SDS011;37038;50.182;8.624;2023-04-03T04:06:04;7.25;;;3.92;;
51010;SDS011;37038;50.182;8.624;2023-04-03T04:08:52;9.85;;;3.58;;
51010;SDS011;37038;50.182;8.624;2023-04-03T04:11:39;5.97;;;3.40;;
51010;SDS011;37038;50.182;8.624;2023-04-03T04:14:27;10.68;;;2.70;;
51010;SDS011;37038;50.182;8.624;2023-04-03T04:17:16;6.05;;;3.28;;
51010;SDS011;37038;50.182;8.624;2023-04-03T04:20:04;7.72;;;3.75;;
51010;SDS011;37038;50.182;8.624;2023-04-03T04:22:51;5.82;;;3.05;;
51010;SDS011;37038;50.182;8.624;2023-04-03T04:25:39;9.30;;;3.95;;
51010;SDS011;37038;50.182;8.624;2023-04-03T04:28:27;11.50;;;3.67;;
51010;SDS011;37038;50.182;8.624;2023-04-03T04:31:15;8.68;;;3.85;;
51010;SDS011;37038;50.182;8.624;2023-04-03T04:34:02;8.35;;;3.63;;
51010;SDS011;37038;50.182;8.624;2023-04-03T04:36:50;5.43;;;3.08;;
51010;SDS011;37038;50.182;8.624;2023-04-03T04:39:37;9.68;;;4.45;;
51010;SDS011;37038;50.182;8.624;2023-04-03T04:42:25;9.02;;;4.03;;
51010;SDS011;37038;50.182;8.624;2023-04-03T04:45:13;6.90;;;3.50;;
51010;SDS011;37038;50.182;8.624;2023-04-03T04:48:01;8.40;;;3.78;;
51010;SDS011;37038;50.182;8.624;2023-04-03T04:50:49;7.38;;;3.40;;
51010;SDS011;37038;50.182;8.624;2023-04-03T04:53:37;10.80;;;3.60;;
51010;SDS011;37038;50.182;8.624;2023-04-03T04:56:25;6.22;;;3.45;;
51010;SDS011;37038;50.182;8.624;2023-04-03T04:59:13;8.23;;;3.28;;
51010;SDS011;37038;50.182;8.624;2023-04-03T05:02:00;12.15;;;3.50;;
51010;SDS011;37038;50.182;8.624;2023-04-03T05:04:48;6.18;;;3.30;;
51010;SDS011;37038;50.182;8.624;2023-04-03T05:07:37;11.55;;;3.78;;
51010;SDS011;37038;50.182;8.624;2023-04-03T05:10:25;8.40;;;3.70;;
51010;SDS011;37038;50.182;8.624;2023-04-03T05:13:12;7.85;;;3.75;;
51010;SDS011;37038;50.182;8.624;2023-04-03T05:16:00;8.57;;;3.85;;
51010;SDS011;37038;50.182;8.624;2023-04-03T05:18:48;10.60;;;3.90;;
51010;SDS011;37038;50.182;8.624;2023-04-03T05:21:36;7.03;;;3.55;;
51010;SDS011;37038;50.182;8.624;2023-04-03T05:24:24;8.18;;;4.30;;
51010;SDS011;37038;50.182;8.624;2023-04-03T05:27:13;8.93;;;3.35;;
51010;SDS011;37038;50.182;8.624;2023-04-03T05:30:01;10.50;;;3.80;;
51010;SDS011;37038;50.182;8.624;2023-04-03T05:32:49;8.13;;;3.65;;
51010;SDS011;37038;50.182;8.624;2023-04-03T05:35:37;8.82;;;3.20;;
51010;SDS011;37038;50.182;8.624;2023-04-03T05:38:28;5.85;;;3.50;;
51010;SDS011;37038;50.182;8.624;2023-04-03T05:41:19;7.72;;;3.30;;
51010;SDS011;37038;50.182;8.624;2023-04-03T05:44:08;7.47;;;3.47;;
51010;SDS011;37038;50.182;8.624;2023-04-03T05:46:56;7.88;;;3.10;;
51010;SDS011;37038;50.182;8.624;2023-04-03T05:49:56;9.77;;;4.43;;
51010;SDS011;37038;50.182;8.624;2023-04-03T05:52:48;5.85;;;2.92;;
51010;SDS011;37038;50.182;8.624;2023-04-03T05:55:40;10.35;;;3.22;;
51010;SDS011;37038;50.182;8.624;2023-04-03T05:58:31;8.10;;;3.15;;
51010;SDS011;37038;50.182;8.624;2023-04-03T06:01:22;6.03;;;3.08;;
51010;SDS011;37038;50.182;8.624;2023-04-03T06:04:10;9.05;;;3.13;;
51010;SDS011;37038;50.182;8.624;2023-04-03T06:07:10;7.25;;;3.25;;
51010;SDS011;37038;50.182;8.624;2023-04-03T06:10:03;6.60;;;3.50;;
51010;SDS011;37038;50.182;8.624;2023-04-03T06:12:54;6.57;;;3.10;;
51010;SDS011;37038;50.182;8.624;2023-04-03T06:15:43;9.10;;;3.17;;
51010;SDS011;37038;50.182;8.624;2023-04-03T06:18:31;5.70;;;3.22;;
51010;SDS011;37038;50.182;8.624;2023-04-03T06:21:39;5.03;;;3.10;;
51010;SDS011;37038;50.182;8.624;2023-04-03T06:24:27;4.75;;;3.08;;
51010;SDS011;37038;50.182;8.624;2023-04-03T06:27:19;7.40;;;2.97;;
51010;SDS011;37038;50.182;8.624;2023-04-03T06:30:08;8.25;;;3.08;;
51010;SDS011;37038;50.182;8.624;2023-04-03T06:32:57;9.18;;;3.50;;
51010;SDS011;37038;50.182;8.624;2023-04-03T06:35:55;6.18;;;3.05;;
51010;SDS011;37038;50.182;8.624;2023-04-03T06:38:48;7.70;;;3.55;;
51010;SDS011;37038;50.182;8.624;2023-04-03T06:41:36;8.73;;;3.42;;
51010;SDS011;37038;50.182;8.624;2023-04-03T06:44:24;6.28;;;3.28;;
51010;SDS011;37038;50.182;8.624;2023-04-03T06:47:12;5.68;;;3.35;;
51010;SDS011;37038;50.182;8.624;2023-04-03T06:50:02;6.55;;;3.15;;
51010;SDS011;37038;50.182;8.624;2023-04-03T06:52:50;6.00;;;3.13;;
51010;SDS011;37038;50.182;8.624;2023-04-03T06:55:37;6.68;;;3.63;;
51010;SDS011;37038;50.182;8.624;2023-04-03T06:58:26;7.97;;;3.70;;
51010;SDS011;37038;50.182;8.624;2023-04-03T07:01:15;7.80;;;3.30;;
51010;SDS011;37038;50.182;8.624;2023-04-03T07:04:03;4.35;;;2.97;;
51010;SDS011;37038;50.182;8.624;2023-04-03T07:06:54;12.35;;;3.67;;
51010;SDS011;37038;50.182;8.624;2023-04-03T07:09:43;7.40;;;3.40;;
51010;SDS011;37038;50.182;8.624;2023-04-03T07:12:31;6.00;;;3.28;;
51010;SDS011;37038;50.182;8.624;2023-04-03T07:15:27;6.60;;;3.53;;
51010;SDS011;37038;50.182;8.624;2023-04-03T07:18:17;5.25;;;3.63;;
51010;SDS011;37038;50.182;8.624;2023-04-03T07:21:23;7.15;;;3.63;;
51010;SDS011;37038;50.182;8.624;2023-04-03T07:24:14;9.75;;;3.88;;
51010;SDS011;37038;50.182;8.624;2023-04-03T07:27:14;7.25;;;3.15;;
51010;SDS011;37038;50.182;8.624;2023-04-03T07:30:03;7.80;;;3.70;;
51010;SDS011;37038;50.182;8.624;2023-04-03T07:32:54;6.75;;;3.33;;
51010;SDS011;37038;50.182;8.624;2023-04-03T07:35:42;6.20;;;3.60;;
51010;SDS011;37038;50.182;8.624;2023-04-03T07:38:34;4.93;;;3.40;;
51010;SDS011;37038;50.182;8.624;2023-04-03T07:41:27;7.75;;;3.38;;
51010;SDS011;37038;50.182;8.624;2023-04-03T07:44:18;6.38;;;3.70;;
51010;SDS011;37038;50.182;8.624;2023-04-03T07:47:06;6.13;;;3.20;;
51010;SDS011;37038;50.182;8.624;2023-04-03T07:49:53;9.38;;;3.25;;
51010;SDS011;37038;50.182;8.624;2023-04-03T07:52:41;7.38;;;3.67;;
51010;SDS011;37038;50.182;8.624;2023-04-03T07:55:29;5.63;;;3.10;;
51010;SDS011;37038;50.182;8.624;2023-04-03T07:58:21;6.60;;;2.65;;
51010;SDS011;37038;50.182;8.624;2023-04-03T08:01:12;7.90;;;3.38;;
51010;SDS011;37038;50.182;8.624;2023-04-03T08:03:59;5.88;;;3.50;;
51010;SDS011;37038;50.182;8.624;2023-04-03T08:06:50;9.07;;;3.65;;
51010;SDS011;37038;50.182;8.624;2023-04-03T08:09:37;7.43;;;3.42;;
51010;SDS011;37038;50.182;8.624;2023-04-03T08:12:36;5.97;;;2.70;;
51010;SDS011;37038;50.182;8.624;2023-04-03T08:15:35;5.78;;;2.97;;
51010;SDS011;37038;50.182;8.624;2023-04-03T08:18:29;8.13;;;3.30;;
51010;SDS011;37038;50.182;8.624;2023-04-03T08:21:21;6.03;;;3.65;;
51010;SDS011;37038;50.182;8.624;2023-04-03T08:24:09;6.95;;;3.63;;
51010;SDS011;37038;50.182;8.624;2023-04-03T08:26:58;8.77;;;3.85;;
51010;SDS011;37038;50.182;8.624;2023-04-03T08:29:47;8.50;;;3.40;;
51010;SDS011;37038;50.182;8.624;2023-04-03T08:32:38;6.75;;;3.10;;
51010;SDS011;37038;50.182;8.624;2023-04-03T08:35:29;5.57;;;3.15;;
51010;SDS011;37038;50.182;8.624;2023-04-03T08:38:17;6.53;;;2.78;;
51010;SDS011;37038;50.182;8.624;2023-04-03T08:41:15;8.52;;;3.45;;
51010;SDS011;37038;50.182;8.624;2023-04-03T08:47:44;8.20;;;3.33;;
51010;SDS011;37038;50.182;8.624;2023-04-03T08:50:46;5.97;;;2.60;;
51010;SDS011;37038;50.182;8.624;2023-04-03T08:53:46;4.80;;;2.97;;
51010;SDS011;37038;50.182;8.624;2023-04-03T08:56:50;7.63;;;2.72;;
51010;SDS011;37038;50.182;8.624;2023-04-03T08:59:45;5.15;;;2.55;;
51010;SDS011;37038;50.182;8.624;2023-04-03T09:05:46;6.10;;;2.75;;
51010;SDS011;37038;50.182;8.624;2023-04-03T09:09:15;6.93;;;2.83;;
51010;SDS011;37038;50.182;8.624;2023-04-03T09:12:34;4.75;;;2.47;;
51010;SDS011;37038;50.182;8.624;2023-04-03T09:15:31;5.88;;;2.60;;
51010;SDS011;37038;50.182;8.624;2023-04-03T09:18:30;9.63;;;3.03;;
51010;SDS011;37038;50.182;8.624;2023-04-03T09:21:39;7.70;;;3.28;;
51010;SDS011;37038;50.182;8.624;2023-04-03T09:24:29;5.20;;;2.88;;
51010;SDS011;37038;50.182;8.624;2023-04-03T09:27:22;6.20;;;3.05;;
51010;SDS011;37038;50.182;8.624;2023-04-03T09:30:16;4.65;;;2.67;;
51010;SDS011;37038;50.182;8.624;2023-04-03T09:33:21;5.65;;;2.75;;
51010;SDS011;37038;50.182;8.624;2023-04-03T09:39:48;6.53;;;2.75;;
51010;SDS011;37038;50.182;8.624;2023-04-03T09:42:59;7.82;;;2.95;;
51010;SDS011;37038;50.182;8.624;2023-04-03T09:45:52;7.30;;;3.90;;
51010;SDS011;37038;50.182;8.624;2023-04-03T09:48:56;6.13;;;2.85;;
51010;SDS011;37038;50.182;8.624;2023-04-03T09:52:00;4.63;;;2.55;;
51010;SDS011;37038;50.182;8.624;2023-04-03T09:55:14;6.97;;;2.83;;
51010;SDS011;37038;50.182;8.624;2023-04-03T09:58:28;6.30;;;2.95;;
51010;SDS011;37038;50.182;8.624;2023-04-03T10:01:38;5.43;;;3.00;;
51010;SDS011;37038;50.182;8.624;2023-04-03T10:04:40;4.80;;;2.67;;
51010;SDS011;37038;50.182;8.624;2023-04-03T10:07:34;4.20;;;3.05;;
51010;SDS011;37038;50.182;8.624;2023-04-03T10:10:24;6.15;;;3.05;;
51010;SDS011;37038;50.182;8.624;2023-04-03T10:13:19;4.90;;;2.72;;
51010;SDS011;37038;50.182;8.624;2023-04-03T10:16:17;7.70;;;3.28;;
51010;SDS011;37038;50.182;8.624;2023-04-03T10:19:57;7.93;;;3.40;;
51010;SDS011;37038;50.182;8.624;2023-04-03T10:23:22;4.55;;;2.67;;
51010;SDS011;37038;50.182;8.624;2023-04-03T10:32:42;5.18;;;3.15;;
51010;SDS011;37038;50.182;8.624;2023-04-03T10:35:50;3.65;;;2.58;;
51010;SDS011;37038;50.182;8.624;2023-04-03T10:39:20;4.97;;;2.80;;
51010;SDS011;37038;50.182;8.624;2023-04-03T10:45:49;5.00;;;2.97;;
51010;SDS011;37038;50.182;8.624;2023-04-03T10:51:59;5.43;;;3.00;;
51010;SDS011;37038;50.182;8.624;2023-04-03T10:58:40;4.22;;;3.03;;
51010;SDS011;37038;50.182;8.624;2023-04-03T11:01:37;4.13;;;2.45;;
51010;SDS011;37038;50.182;8.624;2023-04-03T11:04:29;4.05;;;3.03;;
51010;SDS011;37038;50.182;8.624;2023-04-03T11:07:31;4.53;;;2.78;;
51010;SDS011;37038;50.182;8.624;2023-04-03T11:10:37;4.63;;;3.05;;
51010;SDS011;37038;50.182;8.624;2023-04-03T11:14:00;3.85;;;2.80;;
51010;SDS011;37038;50.182;8.624;2023-04-03T11:16:53;3.60;;;2.40;;
51010;SDS011;37038;50.182;8.624;2023-04-03T11:20:00;6.18;;;3.50;;
51010;SDS011;37038;50.182;8.624;2023-04-03T11:23:47;3.38;;;2.72;;
51010;SDS011;37038;50.182;8.624;2023-04-03T11:26:36;3.47;;;2.88;;
51010;SDS011;37038;50.182;8.624;2023-04-03T11:29:34;6.65;;;2.97;;
51010;SDS011;37038;50.182;8.624;2023-04-03T11:32:34;5.47;;;2.60;;
51010;SDS011;37038;50.182;8.624;2023-04-03T11:35:42;4.78;;;2.67;;
51010;SDS011;37038;50.182;8.624;2023-04-03T11:38:36;6.40;;;2.58;;
51010;SDS011;37038;50.182;8.624;2023-04-03T11:41:37;4.43;;;2.75;;
51010;SDS011;37038;50.182;8.624;2023-04-03T11:44:38;3.30;;;2.72;;
51010;SDS011;37038;50.182;8.624;2023-04-03T11:47:45;3.83;;;2.22;;
51010;SDS011;37038;50.182;8.624;2023-04-03T11:50:43;3.70;;;2.42;;
51010;SDS011;37038;50.182;8.624;2023-04-03T11:53:36;4.85;;;2.67;;
51010;SDS011;37038;50.182;8.624;2023-04-03T11:59:15;4.28;;;2.65;;
51010;SDS011;37038;50.182;8.624;2023-04-03T12:02:34;6.93;;;3.00;;
51010;SDS011;37038;50.182;8.624;2023-04-03T12:05:40;3.35;;;2.72;;
51010;SDS011;37038;50.182;8.624;2023-04-03T12:08:30;2.85;;;2.38;;
51010;SDS011;37038;50.182;8.624;2023-04-03T12:14:21;3.38;;;2.40;;
51010;SDS011;37038;50.182;8.624;2023-04-03T12:17:25;2.63;;;2.20;;
51010;SDS011;37038;50.182;8.624;2023-04-03T12:24:02;6.75;;;3.38;;
51010;SDS011;37038;50.182;8.624;2023-04-03T12:30:29;2.40;;;2.20;;
51010;SDS011;37038;50.182;8.624;2023-04-03T12:33:18;3.70;;;2.65;;
51010;SDS011;37038;50.182;8.624;2023-04-03T12:36:23;5.10;;;2.40;;
51010;SDS011;37038;50.182;8.624;2023-04-03T12:43:22;3.35;;;2.20;;
51010;SDS011;37038;50.182;8.624;2023-04-03T12:46:44;6.55;;;2.20;;
51010;SDS011;37038;50.182;8.624;2023-04-03T12:49:41;3.92;;;1.95;;
51010;SDS011;37038;50.182;8.624;2023-04-03T12:52:33;2.72;;;1.90;;
51010;SDS011;37038;50.182;8.624;2023-04-03T12:55:25;4.00;;;2.20;;
51010;SDS011;37038;50.182;8.624;2023-04-03T12:58:23;3.85;;;2.22;;
51010;SDS011;37038;50.182;8.624;2023-04-03T13:01:14;5.13;;;2.17;;
51010;SDS011;37038;50.182;8.624;2023-04-03T13:04:10;4.90;;;2.33;;
51010;SDS011;37038;50.182;8.624;2023-04-03T13:07:01;2.90;;;2.30;;
51010;SDS011;37038;50.182;8.624;2023-04-03T13:10:01;4.00;;;2.33;;
51010;SDS011;37038;50.182;8.624;2023-04-03T13:12:56;4.03;;;2.40;;
51010;SDS011;37038;50.182;8.624;2023-04-03T13:15:45;3.60;;;2.25;;
51010;SDS011;37038;50.182;8.624;2023-04-03T13:18:38;4.30;;;2.58;;
51010;SDS011;37038;50.182;8.624;2023-04-03T13:21:30;5.90;;;2.30;;
51010;SDS011;37038;50.182;8.624;2023-04-03T13:27:10;5.43;;;3.17;;
51010;SDS011;37038;50.182;8.624;2023-04-03T13:30:00;4.55;;;3.35;;
51010;SDS011;37038;50.182;8.624;2023-04-03T13:32:51;5.70;;;2.83;;
51010;SDS011;37038;50.182;8.624;2023-04-03T13:35:41;5.40;;;3.05;;
51010;SDS011;37038;50.182;8.624;2023-04-03T13:38:30;5.88;;;2.90;;
51010;SDS011;37038;50.182;8.624;2023-04-03T13:41:23;8.20;;;3.40;;
51010;SDS011;37038;50.182;8.624;2023-04-03T13:44:15;4.32;;;2.97;;
51010;SDS011;37038;50.182;8.624;2023-04-03T13:47:18;4.95;;;3.25;;
51010;SDS011;37038;50.182;8.624;2023-04-03T13:50:20;4.57;;;2.17;;
51010;SDS011;37038;50.182;8.624;2023-04-03T13:53:13;4.25;;;2.53;;
51010;SDS011;37038;50.182;8.624;2023-04-03T13:56:07;4.13;;;2.53;;
51010;SDS011;37038;50.182;8.624;2023-04-03T14:04:54;3.95;;;2.30;;
51010;SDS011;37038;50.182;8.624;2023-04-03T14:07:45;3.50;;;1.93;;
51010;SDS011;37038;50.182;8.624;2023-04-03T14:10:34;4.25;;;2.28;;
51010;SDS011;37038;50.182;8.624;2023-04-03T14:13:23;4.47;;;1.90;;
51010;SDS011;37038;50.182;8.624;2023-04-03T14:16:15;1.70;;;1.60;;
51010;SDS011;37038;50.182;8.624;2023-04-03T14:19:07;4.75;;;1.88;;
51010;SDS011;37038;50.182;8.624;2023-04-03T14:25:27;3.83;;;1.95;;
51010;SDS011;37038;50.182;8.624;2023-04-03T14:28:20;3.13;;;1.95;;
51010;SDS011;37038;50.182;8.624;2023-04-03T14:31:10;3.65;;;1.88;;
51010;SDS011;37038;50.182;8.624;2023-04-03T14:34:10;3.75;;;1.75;;
51010;SDS011;37038;50.182;8.624;2023-04-03T14:37:01;2.78;;;1.52;;
51010;SDS011;37038;50.182;8.624;2023-04-03T14:39:58;3.58;;;1.80;;
51010;SDS011;37038;50.182;8.624;2023-04-03T14:42:49;2.60;;;2.00;;
51010;SDS011;37038;50.182;8.624;2023-04-03T14:45:38;4.38;;;1.60;;
51010;SDS011;37038;50.182;8.624;2023-04-03T14:48:26;2.75;;;1.70;;
51010;SDS011;37038;50.182;8.624;2023-04-03T14:51:20;5.72;;;1.60;;
51010;SDS011;37038;50.182;8.624;2023-04-03T14:54:13;3.25;;;1.90;;
51010;SDS011;37038;50.182;8.624;2023-04-03T14:57:04;2.30;;;1.27;;
51010;SDS011;37038;50.182;8.624;2023-04-03T15:00:00;4.50;;;1.48;;
51010;SDS011;37038;50.182;8.624;2023-04-03T15:02:49;1.75;;;1.63;;
51010;SDS011;37038;50.182;8.624;2023-04-03T15:05:38;5.55;;;1.77;;
51010;SDS011;37038;50.182;8.624;2023-04-03T15:08:29;3.20;;;1.70;;
51010;SDS011;37038;50.182;8.624;2023-04-03T15:11:17;2.50;;;1.70;;
51010;SDS011;37038;50.182;8.624;2023-04-03T15:14:08;3.78;;;1.38;;
51010;SDS011;37038;50.182;8.624;2023-04-03T15:16:58;3.05;;;1.40;;
51010;SDS011;37038;50.182;8.624;2023-04-03T15:19:46;2.35;;;1.40;;
51010;SDS011;37038;50.182;8.624;2023-04-03T15:22:37;3.38;;;1.70;;
51010;SDS011;37038;50.182;8.624;2023-04-03T15:25:25;3.47;;;1.65;;
51010;SDS011;37038;50.182;8.624;2023-04-03T15:31:35;2.13;;;1.50;;
51010;SDS011;37038;50.182;8.624;2023-04-03T15:34:23;3.25;;;1.95;;
51010;SDS011;37038;50.182;8.624;2023-04-03T15:37:11;3.13;;;1.70;;
51010;SDS011;37038;50.182;8.624;2023-04-03T15:39:58;2.88;;;1.75;;
51010;SDS011;37038;50.182;8.624;2023-04-03T15:42:48;2.88;;;1.50;;
51010;SDS011;37038;50.182;8.624;2023-04-03T15:45:39;3.10;;;1.60;;
51010;SDS011;37038;50.182;8.624;2023-04-03T15:48:30;4.57;;;1.65;;
51010;SDS011;37038;50.182;8.624;2023-04-03T15:51:18;3.60;;;1.65;;
51010;SDS011;37038;50.182;8.624;2023-04-03T15:54:06;3.05;;;1.60;;
51010;SDS011;37038;50.182;8.624;2023-04-03T15:56:55;4.95;;;1.80;;
51010;SDS011;37038;50.182;8.624;2023-04-03T15:59:44;1.98;;;1.58;;
51010;SDS011;37038;50.182;8.624;2023-04-03T16:02:31;4.72;;;1.88;;
51010;SDS011;37038;50.182;8.624;2023-04-03T16:05:20;2.63;;;1.58;;
51010;SDS011;37038;50.182;8.624;2023-04-03T16:08:08;3.45;;;1.73;;
51010;SDS011;37038;50.182;8.624;2023-04-03T16:10:59;2.80;;;1.70;;
51010;SDS011;37038;50.182;8.624;2023-04-03T16:13:47;3.35;;;1.80;;
51010;SDS011;37038;50.182;8.624;2023-04-03T16:16:35;2.78;;;1.65;;
51010;SDS011;37038;50.182;8.624;2023-04-03T16:19:23;4.35;;;2.05;;
51010;SDS011;37038;50.182;8.624;2023-04-03T16:22:12;2.67;;;1.85;;
51010;SDS011;37038;50.182;8.624;2023-04-03T16:25:08;3.47;;;2.15;;
51010;SDS011;37038;50.182;8.624;2023-04-03T16:27:56;2.30;;;1.90;;
51010;SDS011;37038;50.182;8.624;2023-04-03T16:30:45;5.85;;;2.05;;
51010;SDS011;37038;50.182;8.624;2023-04-03T16:33:36;3.03;;;1.85;;
51010;SDS011;37038;50.182;8.624;2023-04-03T16:36:24;2.13;;;1.90;;
51010;SDS011;37038;50.182;8.624;2023-04-03T16:39:12;3.35;;;2.20;;
51010;SDS011;37038;50.182;8.624;2023-04-03T16:42:00;3.63;;;2.05;;
51010;SDS011;37038;50.182;8.624;2023-04-03T16:44:48;5.53;;;1.80;;
51010;SDS011;37038;50.182;8.624;2023-04-03T16:47:36;3.85;;;1.80;;
51010;SDS011;37038;50.182;8.624;2023-04-03T16:50:24;2.80;;;1.95;;
51010;SDS011;37038;50.182;8.624;2023-04-03T16:53:12;4.25;;;2.03;;
51010;SDS011;37038;50.182;8.624;2023-04-03T16:55:59;6.60;;;2.08;;
51010;SDS011;37038;50.182;8.624;2023-04-03T16:58:47;4.10;;;2.45;;
51010;SDS011;37038;50.182;8.624;2023-04-03T17:01:35;6.30;;;2.65;;
51010;SDS011;37038;50.182;8.624;2023-04-03T17:04:23;3.65;;;2.25;;
51010;SDS011;37038;50.182;8.624;2023-04-03T17:07:11;5.70;;;2.90;;
51010;SDS011;37038;50.182;8.624;2023-04-03T17:10:05;3.97;;;2.50;;
51010;SDS011;37038;50.182;8.624;2023-04-03T17:12:53;6.82;;;2.30;;
51010;SDS011;37038;50.182;8.624;2023-04-03T17:15:41;5.32;;;2.38;;
51010;SDS011;37038;50.182;8.624;2023-04-03T17:18:29;3.63;;;2.00;;
51010;SDS011;37038;50.182;8.624;2023-04-03T17:21:18;3.88;;;2.28;;
51010;SDS011;37038;50.182;8.624;2023-04-03T17:24:06;4.72;;;2.55;;
51010;SDS011;37038;50.182;8.624;2023-04-03T17:27:02;7.80;;;2.75;;
51010;SDS011;37038;50.182;8.624;2023-04-03T17:29:50;2.55;;;2.20;;
51010;SDS011;37038;50.182;8.624;2023-04-03T17:32:38;6.78;;;2.97;;
51010;SDS011;37038;50.182;8.624;2023-04-03T17:35:25;4.53;;;2.38;;
51010;SDS011;37038;50.182;8.624;2023-04-03T17:38:17;3.33;;;2.25;;
51010;SDS011;37038;50.182;8.624;2023-04-03T17:41:06;5.47;;;2.67;;
51010;SDS011;37038;50.182;8.624;2023-04-03T17:43:54;5.35;;;2.38;;
51010;SDS011;37038;50.182;8.624;2023-04-03T17:46:43;5.03;;;2.90;;
51010;SDS011;37038;50.182;8.624;2023-04-03T17:49:31;4.50;;;2.72;;
51010;SDS011;37038;50.182;8.624;2023-04-03T17:52:19;5.82;;;3.20;;
51010;SDS011;37038;50.182;8.624;2023-04-03T17:55:10;3.70;;;2.65;;
51010;SDS011;37038;50.182;8.624;2023-04-03T17:57:59;6.35;;;2.67;;
51010;SDS011;37038;50.182;8.624;2023-04-03T18:00:49;2.97;;;2.17;;
51010;SDS011;37038;50.182;8.624;2023-04-03T18:03:37;5.70;;;2.70;;
51010;SDS011;37038;50.182;8.624;2023-04-03T18:06:26;4.88;;;2.95;;
51010;SDS011;37038;50.182;8.624;2023-04-03T18:09:25;5.70;;;3.60;;
51010;SDS011;37038;50.182;8.624;2023-04-03T18:12:17;3.97;;;2.70;;
51010;SDS011;37038;50.182;8.624;2023-04-03T18:15:05;4.18;;;2.97;;
51010;SDS011;37038;50.182;8.624;2023-04-03T18:17:56;7.03;;;3.22;;
51010;SDS011;37038;50.182;8.624;2023-04-03T18:20:44;6.20;;;3.03;;